Time;durP1;ratioP1;P1;durP2;ratioP2;P2;SDS_P1;SDS_P2;PMS_P1;PMS_P2;Temp;Humidity;BMP_temperature;BMP_pressure;BME280_temperature;BME280_humidity;BME280_pressure;Samples;Min_cycle;Max_cycle;Signal;HPM_P1;HPM_P2
2022/03/06 00:00:15;;;;;;;29.50;20.52;;;;;;;;;;6095020;23;20041;-78
2022/03/06 00:02:43;;;;;;;29.75;20.67;;;;;;;;;;6070991;23;20048;-78
2022/03/06 00:05:09;;;;;;;28.67;20.95;;;;;;;;;;6095047;23;20076;-78
2022/03/06 00:07:35;;;;;;;32.10;20.90;;;;;;;;;;6094596;23;20021;-78
2022/03/06 00:10:01;;;;;;;30.85;20.95;;;;;;;;;;6095132;23;20010;-78
2022/03/06 00:12:27;;;;;;;29.33;20.35;;;;;;;;;;6095055;23;20089;-78
2022/03/06 00:14:53;;;;;;;29.45;20.20;;;;;;;;;;6095008;23;20018;-78
2022/03/06 00:17:19;;;;;;;28.02;20.63;;;;;;;;;;6071297;23;20474;-78
2022/03/06 00:19:45;;;;;;;28.05;19.40;;;;;;;;;;6070978;23;20412;-78
2022/03/06 00:22:11;;;;;;;30.73;20.45;;;;;;;;;;6095374;23;20018;-78
2022/03/06 00:24:37;;;;;;;28.77;21.02;;;;;;;;;;6095179;23;20028;-78
2022/03/06 00:27:03;;;;;;;29.05;20.77;;;;;;;;;;6094928;23;20026;-78
2022/03/06 00:29:29;;;;;;;31.40;21.63;;;;;;;;;;6065791;23;20034;-78
2022/03/06 00:31:55;;;;;;;31.17;21.95;;;;;;;;;;6066258;23;20014;-78
2022/03/06 00:34:21;;;;;;;30.02;20.52;;;;;;;;;;6066002;23;20010;-77
2022/03/06 00:36:47;;;;;;;29.63;19.90;;;;;;;;;;6066158;23;20026;-77
2022/03/06 00:39:13;;;;;;;27.33;19.42;;;;;;;;;;6066398;23;20022;-78
2022/03/06 00:41:39;;;;;;;26.30;18.92;;;;;;;;;;6066192;23;20018;-78
2022/03/06 00:44:05;;;;;;;24.98;18.15;;;;;;;;;;6066159;23;20343;-78
2022/03/06 00:46:31;;;;;;;26.08;19.00;;;;;;;;;;6066136;23;20018;-78
2022/03/06 00:48:57;;;;;;;26.73;18.02;;;;;;;;;;6066071;23;20042;-78
2022/03/06 00:51:23;;;;;;;25.63;17.95;;;;;;;;;;6066137;23;20073;-78
2022/03/06 00:53:49;;;;;;;27.15;18.25;;;;;;;;;;6066231;23;20006;-78
2022/03/06 00:56:15;;;;;;;29.60;19.33;;;;;;;;;;6066091;23;20449;-78
2022/03/06 00:58:41;;;;;;;26.45;18.90;;;;;;;;;;6066013;23;20291;-78
2022/03/06 01:01:07;;;;;;;25.98;17.52;;;;;;;;;;6066053;23;20097;-77
2022/03/06 01:03:34;;;;;;;24.67;16.98;;;;;;;;;;6065815;23;20018;-78
2022/03/06 01:05:59;;;;;;;25.17;16.85;;;;;;;;;;6065826;23;20014;-78
2022/03/06 01:08:26;;;;;;;23.92;16.65;;;;;;;;;;6065668;23;20069;-78
2022/03/06 01:10:52;;;;;;;22.60;16.75;;;;;;;;;;6065890;23;20051;-78
2022/03/06 01:13:19;;;;;;;23.85;16.35;;;;;;;;;;6065883;23;20021;-77
2022/03/06 01:15:45;;;;;;;22.02;15.07;;;;;;;;;;6065932;23;20018;-78
2022/03/06 01:18:11;;;;;;;22.75;15.50;;;;;;;;;;6066290;23;20015;-78
2022/03/06 01:20:39;;;;;;;21.38;14.18;;;;;;;;;;6065839;23;20050;-78
2022/03/06 01:23:05;;;;;;;22.77;14.95;;;;;;;;;;6065986;23;20288;-78
2022/03/06 01:25:32;;;;;;;23.27;15.77;;;;;;;;;;6065734;23;20025;-78
2022/03/06 01:27:58;;;;;;;23.08;15.93;;;;;;;;;;6067109;23;20022;-78
2022/03/06 01:30:25;;;;;;;22.10;15.05;;;;;;;;;;6093364;23;20333;-78
2022/03/06 01:32:51;;;;;;;21.67;15.25;;;;;;;;;;6073118;23;20085;-78
2022/03/06 01:35:17;;;;;;;22.25;15.55;;;;;;;;;;6096676;23;20458;-77
2022/03/06 01:37:43;;;;;;;20.40;14.70;;;;;;;;;;6072355;23;20049;-78
2022/03/06 01:40:10;;;;;;;20.65;15.07;;;;;;;;;;6096567;23;20025;-78
2022/03/06 01:42:39;;;;;;;20.55;14.18;;;;;;;;;;6072991;23;20359;-78
2022/03/06 01:45:06;;;;;;;23.00;15.20;;;;;;;;;;6096422;23;20089;-78
2022/03/06 01:47:32;;;;;;;21.48;14.80;;;;;;;;;;6096282;23;20456;-78
2022/03/06 01:49:58;;;;;;;21.02;15.75;;;;;;;;;;6096700;23;20021;-78
2022/03/06 01:52:24;;;;;;;21.40;14.82;;;;;;;;;;6072376;23;20036;-78
2022/03/06 01:54:50;;;;;;;21.27;14.93;;;;;;;;;;6096384;23;20014;-78
2022/03/06 01:57:16;;;;;;;22.15;13.77;;;;;;;;;;6096472;23;20487;-78
2022/03/06 01:59:42;;;;;;;19.50;13.77;;;;;;;;;;6096454;23;20014;-78
2022/03/06 02:02:08;;;;;;;20.30;14.15;;;;;;;;;;6096040;23;20022;-78
2022/03/06 02:04:34;;;;;;;21.08;15.30;;;;;;;;;;6096086;23;20097;-78
2022/03/06 02:07:00;;;;;;;20.13;15.10;;;;;;;;;;6072279;23;20056;-78
2022/03/06 02:09:27;;;;;;;20.02;14.55;;;;;;;;;;6071798;23;20017;-78
2022/03/06 02:14:38;;;;;;;20.05;15.40;;;;;;;;;;6096273;23;20018;-78
2022/03/06 02:17:04;;;;;;;20.45;14.77;;;;;;;;;;6072420;23;20056;-77
2022/03/06 02:19:30;;;;;;;18.55;13.25;;;;;;;;;;6096021;23;20018;-78
2022/03/06 02:21:56;;;;;;;22.80;14.40;;;;;;;;;;6072149;23;20226;-78
2022/03/06 02:24:22;;;;;;;18.70;14.32;;;;;;;;;;6072173;23;20014;-78
2022/03/06 02:26:48;;;;;;;18.20;13.68;;;;;;;;;;6071936;23;20460;-78
2022/03/06 02:29:14;;;;;;;20.42;13.60;;;;;;;;;;6072006;23;20018;-78
2022/03/06 02:31:40;;;;;;;17.48;13.50;;;;;;;;;;6095855;23;20020;-77
2022/03/06 02:34:06;;;;;;;18.65;13.43;;;;;;;;;;6071904;23;20014;-78
2022/03/06 02:36:32;;;;;;;18.30;13.75;;;;;;;;;;6096020;23;20010;-78
2022/03/06 02:38:59;;;;;;;18.25;13.93;;;;;;;;;;6095907;23;20470;-78
2022/03/06 02:41:24;;;;;;;20.02;14.38;;;;;;;;;;6095987;23;20014;-78
2022/03/06 02:43:50;;;;;;;19.55;13.32;;;;;;;;;;6095802;23;20013;-79
2022/03/06 02:46:16;;;;;;;20.23;14.27;;;;;;;;;;6095801;23;20340;-78
2022/03/06 02:48:43;;;;;;;18.48;14.13;;;;;;;;;;6095802;23;20045;-79
2022/03/06 02:51:09;;;;;;;19.58;13.93;;;;;;;;;;6095861;23;20010;-79
2022/03/06 02:53:35;;;;;;;19.73;14.40;;;;;;;;;;6072035;23;20010;-78
2022/03/06 02:56:02;;;;;;;19.10;13.80;;;;;;;;;;6095838;23;20014;-78
2022/03/06 02:58:28;;;;;;;19.85;14.85;;;;;;;;;;6095615;23;20017;-78
2022/03/06 03:00:54;;;;;;;18.67;14.23;;;;;;;;;;6095790;23;20080;-78
2022/03/06 03:03:20;;;;;;;20.60;14.63;;;;;;;;;;6095638;23;20669;-78
2022/03/06 03:05:46;;;;;;;19.30;14.30;;;;;;;;;;6095742;23;20017;-78
2022/03/06 03:08:12;;;;;;;19.35;14.68;;;;;;;;;;6095635;23;20108;-78
2022/03/06 03:10:38;;;;;;;20.35;14.27;;;;;;;;;;6095478;23;20021;-78
2022/03/06 03:13:04;;;;;;;19.17;13.73;;;;;;;;;;6095645;23;20370;-78
2022/03/06 03:15:30;;;;;;;18.27;13.60;;;;;;;;;;6071820;23;20009;-78
2022/03/06 03:17:56;;;;;;;15.70;11.77;;;;;;;;;;6095675;23;20021;-78
2022/03/06 03:20:22;;;;;;;17.45;11.80;;;;;;;;;;6071535;23;20074;-78
2022/03/06 03:22:48;;;;;;;15.30;11.07;;;;;;;;;;6095653;23;20104;-78
2022/03/06 03:25:14;;;;;;;15.02;9.88;;;;;;;;;;6095459;23;20044;-78
2022/03/06 03:27:41;;;;;;;14.25;9.98;;;;;;;;;;6095551;23;20018;-78
2022/03/06 03:30:08;;;;;;;13.68;9.40;;;;;;;;;;6070796;23;20025;-78
2022/03/06 03:32:34;;;;;;;13.25;8.57;;;;;;;;;;6095510;23;20017;-78
2022/03/06 03:35:00;;;;;;;12.80;8.68;;;;;;;;;;6071478;23;20093;-78
2022/03/06 03:37:26;;;;;;;13.25;8.73;;;;;;;;;;6095591;23;20013;-78
2022/03/06 03:39:52;;;;;;;14.23;9.35;;;;;;;;;;6095289;23;20013;-78
2022/03/06 03:42:18;;;;;;;14.05;8.57;;;;;;;;;;6095531;23;20460;-77
2022/03/06 03:44:44;;;;;;;12.35;7.80;;;;;;;;;;6095242;23;20050;-78
2022/03/06 03:47:10;;;;;;;13.30;8.60;;;;;;;;;;6095264;23;20356;-79
2022/03/06 03:49:36;;;;;;;13.43;9.02;;;;;;;;;;6095182;23;20010;-78
2022/03/06 03:52:02;;;;;;;13.48;9.20;;;;;;;;;;6094659;23;20013;-78
2022/03/06 03:54:28;;;;;;;12.55;8.45;;;;;;;;;;6095152;23;20069;-78
2022/03/06 03:56:54;;;;;;;12.35;8.48;;;;;;;;;;6071113;23;20022;-78
2022/03/06 03:59:20;;;;;;;17.00;9.50;;;;;;;;;;6095045;23;20423;-78
2022/03/06 04:01:46;;;;;;;13.07;9.20;;;;;;;;;;6095284;23;20056;-78
2022/03/06 04:04:12;;;;;;;12.43;8.45;;;;;;;;;;6095256;23;20021;-78
2022/03/06 04:06:38;;;;;;;13.45;8.70;;;;;;;;;;6071168;23;20017;-78
2022/03/06 04:09:04;;;;;;;13.75;9.15;;;;;;;;;;6095149;23;20014;-78
2022/03/06 04:11:30;;;;;;;12.98;9.25;;;;;;;;;;6070877;23;20016;-78
2022/03/06 04:13:56;;;;;;;13.43;8.38;;;;;;;;;;6094984;23;20014;-77
2022/03/06 04:16:22;;;;;;;12.13;8.25;;;;;;;;;;6094980;23;20432;-78
2022/03/06 04:18:48;;;;;;;14.23;9.35;;;;;;;;;;6094944;23;20275;-78
2022/03/06 04:21:14;;;;;;;13.60;9.57;;;;;;;;;;6095034;23;20456;-78
2022/03/06 04:23:40;;;;;;;13.75;9.07;;;;;;;;;;6095487;23;20447;-78
2022/03/06 04:26:06;;;;;;;15.77;9.45;;;;;;;;;;6095198;23;20272;-77
2022/03/06 04:28:32;;;;;;;14.13;10.02;;;;;;;;;;6094633;23;20025;-78
2022/03/06 04:30:58;;;;;;;20.20;10.25;;;;;;;;;;6095199;23;20018;-78
2022/03/06 04:33:24;;;;;;;13.85;8.98;;;;;;;;;;6095195;23;20077;-78
2022/03/06 04:35:50;;;;;;;12.88;8.55;;;;;;;;;;6095062;23;20017;-78
2022/03/06 04:38:16;;;;;;;13.60;8.75;;;;;;;;;;6094951;23;20022;-78
2022/03/06 04:40:42;;;;;;;11.55;7.78;;;;;;;;;;6083216;23;20026;-78
2022/03/06 04:43:07;;;;;;;13.23;8.95;;;;;;;;;;6094753;23;20109;-78
2022/03/06 04:45:33;;;;;;;14.60;9.20;;;;;;;;;;6095060;23;20096;-78
2022/03/06 04:47:59;;;;;;;11.98;8.57;;;;;;;;;;6094862;23;20010;-78
2022/03/06 04:50:25;;;;;;;15.57;8.50;;;;;;;;;;6070929;23;20460;-78
2022/03/06 04:52:51;;;;;;;13.15;8.20;;;;;;;;;;6095168;23;20113;-78
2022/03/06 04:55:17;;;;;;;13.57;8.73;;;;;;;;;;6094921;23;20532;-78
2022/03/06 04:57:46;;;;;;;12.80;7.82;;;;;;;;;;6070800;23;20054;-78
2022/03/06 05:00:13;;;;;;;12.02;8.25;;;;;;;;;;6094701;23;20017;-78
2022/03/06 05:02:38;;;;;;;12.90;8.02;;;;;;;;;;6096315;23;20037;-78
2022/03/06 05:05:05;;;;;;;12.43;7.97;;;;;;;;;;6096558;23;20460;-78
2022/03/06 05:07:31;;;;;;;12.95;8.15;;;;;;;;;;6096322;23;20363;-78
2022/03/06 05:09:57;;;;;;;12.13;8.40;;;;;;;;;;6096660;23;20018;-78
2022/03/06 05:12:23;;;;;;;11.93;7.70;;;;;;;;;;6096706;23;20025;-78
2022/03/06 05:14:49;;;;;;;15.15;8.60;;;;;;;;;;6123201;23;20041;-77
2022/03/06 05:17:16;;;;;;;14.27;8.73;;;;;;;;;;6096573;23;20018;-78
2022/03/06 05:19:42;;;;;;;13.68;8.77;;;;;;;;;;6096783;23;20024;-77
2022/03/06 05:22:08;;;;;;;12.27;7.90;;;;;;;;;;6096393;23;20013;-78
2022/03/06 05:24:34;;;;;;;12.07;7.60;;;;;;;;;;6096486;23;20018;-78
2022/03/06 05:27:00;;;;;;;13.13;8.20;;;;;;;;;;6096441;23;20068;-77
2022/03/06 05:29:26;;;;;;;12.93;8.27;;;;;;;;;;6096127;23;20022;-78
2022/03/06 05:31:52;;;;;;;12.65;7.88;;;;;;;;;;6096938;23;20514;-77
2022/03/06 05:34:18;;;;;;;11.95;7.50;;;;;;;;;;6095773;23;20010;-78
2022/03/06 05:36:44;;;;;;;10.75;7.18;;;;;;;;;;6072328;23;20021;-78
2022/03/06 05:39:10;;;;;;;12.20;6.95;;;;;;;;;;6096408;23;20014;-78
2022/03/06 05:41:35;;;;;;;11.05;7.22;;;;;;;;;;6096281;23;20025;-78
2022/03/06 05:44:01;;;;;;;11.38;7.40;;;;;;;;;;6096452;23;20014;-78
2022/03/06 05:46:27;;;;;;;11.68;6.93;;;;;;;;;;6096509;23;20033;-78
2022/03/06 05:48:53;;;;;;;11.77;7.50;;;;;;;;;;6096254;23;20430;-78
2022/03/06 05:51:19;;;;;;;11.40;7.25;;;;;;;;;;6096272;23;20096;-78
2022/03/06 05:53:45;;;;;;;12.23;7.05;;;;;;;;;;6096287;23;20307;-78
2022/03/06 05:56:11;;;;;;;11.75;7.32;;;;;;;;;;6096163;23;20017;-77
2022/03/06 05:58:37;;;;;;;10.90;6.95;;;;;;;;;;6072128;23;20083;-77
2022/03/06 06:01:03;;;;;;;14.05;8.38;;;;;;;;;;6096448;23;20025;-77
2022/03/06 06:03:29;;;;;;;14.35;7.90;;;;;;;;;;6071959;23;20466;-78
2022/03/06 06:05:55;;;;;;;13.63;7.82;;;;;;;;;;6095944;23;20072;-78
2022/03/06 06:08:21;;;;;;;11.35;7.07;;;;;;;;;;6095856;23;20564;-78
2022/03/06 06:10:47;;;;;;;15.13;8.10;;;;;;;;;;6072037;23;20014;-77
2022/03/06 06:13:15;;;;;;;12.80;8.82;;;;;;;;;;6071431;23;20089;-77
2022/03/06 06:15:43;;;;;;;12.77;7.50;;;;;;;;;;6095958;23;20017;-77
2022/03/06 06:18:10;;;;;;;12.27;7.60;;;;;;;;;;6095922;23;20024;-77
2022/03/06 06:20:36;;;;;;;11.73;7.88;;;;;;;;;;6072083;23;20025;-77
2022/03/06 06:23:03;;;;;;;11.27;7.10;;;;;;;;;;6071916;23;20014;-77
2022/03/06 06:25:29;;;;;;;12.25;7.32;;;;;;;;;;6095782;23;20021;-77
2022/03/06 06:27:55;;;;;;;11.00;6.78;;;;;;;;;;6095627;23;20459;-77
2022/03/06 06:30:21;;;;;;;13.15;7.97;;;;;;;;;;6095712;23;20081;-77
2022/03/06 06:32:47;;;;;;;11.88;7.75;;;;;;;;;;6071777;23;20090;-77
2022/03/06 06:35:13;;;;;;;12.32;7.53;;;;;;;;;;6095876;23;20412;-77
2022/03/06 06:37:39;;;;;;;10.75;6.97;;;;;;;;;;6095646;23;20018;-78
2022/03/06 06:40:05;;;;;;;10.45;6.70;;;;;;;;;;6071664;23;20356;-77
2022/03/06 06:42:31;;;;;;;12.15;7.95;;;;;;;;;;6095601;23;20025;-78
2022/03/06 06:44:57;;;;;;;14.27;6.95;;;;;;;;;;6095520;23;20014;-78
2022/03/06 06:47:23;;;;;;;12.73;6.80;;;;;;;;;;6071457;23;20018;-77
2022/03/06 06:49:49;;;;;;;12.43;7.43;;;;;;;;;;6095516;23;20010;-77
2022/03/06 06:52:15;;;;;;;11.68;6.95;;;;;;;;;;6095466;23;20073;-77
2022/03/06 06:54:41;;;;;;;11.82;6.65;;;;;;;;;;6071836;23;20036;-77
2022/03/06 06:57:07;;;;;;;12.38;7.65;;;;;;;;;;6095371;23;20045;-77
2022/03/06 06:59:33;;;;;;;13.98;8.02;;;;;;;;;;6071278;23;20088;-77
2022/03/06 07:01:59;;;;;;;14.15;7.93;;;;;;;;;;6095739;23;20017;-77
2022/03/06 07:04:25;;;;;;;11.90;7.45;;;;;;;;;;6070790;23;20025;-78
2022/03/06 07:06:51;;;;;;;14.02;8.23;;;;;;;;;;6095152;23;20459;-77
2022/03/06 07:09:17;;;;;;;13.15;8.15;;;;;;;;;;6095765;23;20347;-77
2022/03/06 07:11:43;;;;;;;14.35;8.10;;;;;;;;;;6095831;23;20093;-77
2022/03/06 07:14:09;;;;;;;11.60;7.97;;;;;;;;;;6095609;23;20045;-77
2022/03/06 07:16:35;;;;;;;12.25;7.97;;;;;;;;;;6095437;23;20077;-77
2022/03/06 07:19:01;;;;;;;13.48;7.93;;;;;;;;;;6095373;23;20076;-77
2022/03/06 07:21:27;;;;;;;12.32;8.18;;;;;;;;;;6095285;23;20018;-78
2022/03/06 07:23:53;;;;;;;13.27;8.60;;;;;;;;;;6095242;23;20157;-78
2022/03/06 07:26:19;;;;;;;13.85;8.35;;;;;;;;;;6095134;23;20352;-78
2022/03/06 07:28:45;;;;;;;13.63;8.75;;;;;;;;;;6095093;23;20404;-76
2022/03/06 07:31:11;;;;;;;12.07;8.02;;;;;;;;;;6071680;23;20084;-77
2022/03/06 07:33:36;;;;;;;11.27;7.43;;;;;;;;;;6095246;23;20093;-78
2022/03/06 07:36:03;;;;;;;14.05;6.82;;;;;;;;;;6095292;23;20448;-78
2022/03/06 07:38:29;;;;;;;12.48;7.03;;;;;;;;;;6094588;23;20400;-78
2022/03/06 07:40:55;;;;;;;14.65;8.00;;;;;;;;;;6094697;23;20045;-78
2022/03/06 07:43:21;;;;;;;10.40;7.85;;;;;;;;;;6070855;23;20239;-78
2022/03/06 07:45:47;;;;;;;10.02;6.68;;;;;;;;;;6095151;23;20022;-78
2022/03/06 07:48:12;;;;;;;10.85;6.70;;;;;;;;;;6094695;23;20077;-77
2022/03/06 07:50:38;;;;;;;12.27;7.28;;;;;;;;;;6095516;23;20044;-77
2022/03/06 07:53:04;;;;;;;10.27;6.50;;;;;;;;;;6095351;23;20463;-78
2022/03/06 07:55:30;;;;;;;9.02;5.97;;;;;;;;;;6094064;23;20065;-78
2022/03/06 07:57:56;;;;;;;11.23;6.60;;;;;;;;;;6094394;23;20459;-77
2022/03/06 08:00:22;;;;;;;9.75;6.53;;;;;;;;;;6070120;23;20018;-78
2022/03/06 08:02:48;;;;;;;9.68;6.32;;;;;;;;;;6094250;23;20056;-78
2022/03/06 08:05:14;;;;;;;10.43;6.55;;;;;;;;;;6070704;23;20018;-78
2022/03/06 08:07:40;;;;;;;11.00;6.60;;;;;;;;;;6091947;23;20412;-79
2022/03/06 08:10:08;;;;;;;10.65;6.43;;;;;;;;;;6070434;23;20014;-78
2022/03/06 08:12:34;;;;;;;12.82;7.05;;;;;;;;;;6094502;23;20016;-77
2022/03/06 08:15:00;;;;;;;10.75;6.90;;;;;;;;;;6094568;23;20068;-78
2022/03/06 08:17:26;;;;;;;9.00;5.97;;;;;;;;;;6095489;23;20014;-79
2022/03/06 08:19:53;;;;;;;11.57;6.20;;;;;;;;;;6095485;23;20025;-78
2022/03/06 08:22:21;;;;;;;8.95;5.85;;;;;;;;;;6095136;23;20018;-78
2022/03/06 08:24:47;;;;;;;8.90;5.90;;;;;;;;;;6094662;23;20488;-79
2022/03/06 08:27:13;;;;;;;8.23;5.57;;;;;;;;;;6094610;23;20029;-78
2022/03/06 08:29:39;;;;;;;10.18;5.28;;;;;;;;;;6094540;23;20018;-78
2022/03/06 08:32:05;;;;;;;8.57;5.78;;;;;;;;;;6094747;23;20200;-78
2022/03/06 08:34:31;;;;;;;9.00;4.75;;;;;;;;;;6094193;23;20396;-79
2022/03/06 08:36:57;;;;;;;8.98;5.22;;;;;;;;;;6096331;23;20017;-78
2022/03/06 08:39:23;;;;;;;7.85;4.85;;;;;;;;;;6098154;23;20097;-78
2022/03/06 08:41:49;;;;;;;9.75;4.88;;;;;;;;;;6098610;23;20072;-79
2022/03/06 08:44:15;;;;;;;8.45;5.10;;;;;;;;;;6098083;23;20018;-79
2022/03/06 08:46:41;;;;;;;7.55;4.55;;;;;;;;;;6097555;23;20329;-78
2022/03/06 08:49:07;;;;;;;8.23;5.03;;;;;;;;;;6098034;23;20017;-79
2022/03/06 08:51:35;;;;;;;7.55;4.18;;;;;;;;;;6073415;23;20360;-79
2022/03/06 08:54:01;;;;;;;7.13;4.55;;;;;;;;;;6097576;23;20017;-78
2022/03/06 08:56:28;;;;;;;6.47;4.15;;;;;;;;;;6097830;23;20014;-78
2022/03/06 08:58:54;;;;;;;7.88;4.40;;;;;;;;;;6098367;23;20088;-77
2022/03/06 09:01:20;;;;;;;6.75;4.15;;;;;;;;;;6074520;23;20018;-79
2022/03/06 09:03:46;;;;;;;7.10;3.85;;;;;;;;;;6076768;23;20089;-80
2022/03/06 09:06:12;;;;;;;10.45;4.72;;;;;;;;;;6077370;23;20096;-80
2022/03/06 09:08:39;;;;;;;8.65;4.30;;;;;;;;;;6076969;23;20045;-79
2022/03/06 09:11:09;;;;;;;8.13;3.95;;;;;;;;;;6076522;23;20025;-81
2022/03/06 09:13:42;;;;;;;7.25;4.13;;;;;;;;;;6077555;23;20348;-80
2022/03/06 09:16:08;;;;;;;6.55;3.92;;;;;;;;;;6101018;23;20690;-80
2022/03/06 09:18:35;;;;;;;8.73;3.95;;;;;;;;;;6076749;23;20517;-81
2022/03/06 09:21:02;;;;;;;7.47;3.80;;;;;;;;;;6100539;23;20058;-81
2022/03/06 09:23:29;;;;;;;7.43;3.72;;;;;;;;;;6077979;23;20045;-80
2022/03/06 09:25:55;;;;;;;8.57;3.72;;;;;;;;;;6076782;23;20058;-82
2022/03/06 09:28:21;;;;;;;7.30;4.13;;;;;;;;;;6076088;23;20540;-80
2022/03/06 09:30:53;;;;;;;5.88;3.55;;;;;;;;;;6076165;23;20085;-81
2022/03/06 09:33:20;;;;;;;7.03;3.72;;;;;;;;;;6076542;23;20021;-82
2022/03/06 09:35:47;;;;;;;6.60;3.38;;;;;;;;;;6076862;23;20041;-81
2022/03/06 09:38:13;;;;;;;8.07;4.20;;;;;;;;;;6077201;23;20049;-81
2022/03/06 09:40:42;;;;;;;4.72;3.40;;;;;;;;;;6076727;23;20444;-81
2022/03/06 09:43:10;;;;;;;6.93;3.60;;;;;;;;;;6076885;23;20009;-82
2022/03/06 09:45:40;;;;;;;7.07;4.18;;;;;;;;;;6100677;23;20336;-82
2022/03/06 09:48:06;;;;;;;8.80;3.90;;;;;;;;;;6076003;23;20014;-81
2022/03/06 09:50:33;;;;;;;6.00;3.67;;;;;;;;;;6097773;23;20021;-81
2022/03/06 09:52:59;;;;;;;7.15;3.78;;;;;;;;;;6072445;23;20336;-81
2022/03/06 09:55:25;;;;;;;6.35;3.45;;;;;;;;;;6072645;23;20093;-80
2022/03/06 09:57:56;;;;;;;5.30;3.58;;;;;;;;;;6096004;23;20093;-80
2022/03/06 10:00:22;;;;;;;5.97;3.38;;;;;;;;;;6074317;23;20014;-81
2022/03/06 10:02:52;;;;;;;6.72;4.13;;;;;;;;;;6073992;23;20262;-82
2022/03/06 10:05:30;;;;;;;6.53;3.53;;;;;;;;;;6097648;23;20025;-80
2022/03/06 10:08:15;;;;;;;7.97;3.70;;;;;;;;;;6098369;23;20137;-82
2022/03/06 10:10:41;;;;;;;6.35;3.63;;;;;;;;;;6095662;23;20117;-81
2022/03/06 10:13:08;;;;;;;7.10;3.85;;;;;;;;;;6071863;23;20009;-83
2022/03/06 10:15:54;;;;;;;6.43;3.80;;;;;;;;;;6071899;23;20344;-80
2022/03/06 10:18:20;;;;;;;6.03;3.80;;;;;;;;;;6095647;23;20129;-81
2022/03/06 10:20:46;;;;;;;6.13;3.50;;;;;;;;;;6072269;23;20483;-81
2022/03/06 10:23:24;;;;;;;7.18;3.78;;;;;;;;;;6071415;23;20014;-82
2022/03/06 10:26:06;;;;;;;6.82;3.90;;;;;;;;;;6095380;23;20097;-81
2022/03/06 10:28:42;;;;;;;5.82;3.85;;;;;;;;;;6095468;23;20010;-80
2022/03/06 10:31:08;;;;;;;6.57;3.83;;;;;;;;;;6071639;23;20021;-81
2022/03/06 10:33:34;;;;;;;5.97;3.60;;;;;;;;;;6095649;23;20340;-80
2022/03/06 10:36:02;;;;;;;6.43;3.58;;;;;;;;;;6071698;23;20014;-81
2022/03/06 10:38:34;;;;;;;6.18;3.65;;;;;;;;;;6095382;23;20018;-82
2022/03/06 10:41:11;;;;;;;7.80;3.30;;;;;;;;;;6095441;23;20056;-82
2022/03/06 10:43:37;;;;;;;5.78;3.45;;;;;;;;;;6095555;23;20022;-80
2022/03/06 10:46:10;;;;;;;6.25;3.53;;;;;;;;;;6095569;23;20091;-81
2022/03/06 10:48:37;;;;;;;5.83;3.47;;;;;;;;;;6095545;23;20427;-84
2022/03/06 10:51:05;;;;;;;6.95;3.47;;;;;;;;;;6071273;23;20021;-81
2022/03/06 10:53:31;;;;;;;6.10;3.60;;;;;;;;;;6071248;23;20343;-80
2022/03/06 10:56:05;;;;;;;6.65;3.80;;;;;;;;;;6071313;23;20018;-80
2022/03/06 10:58:32;;;;;;;6.72;3.65;;;;;;;;;;6095304;23;20096;-79
2022/03/06 11:00:58;;;;;;;6.00;3.50;;;;;;;;;;6094434;23;20021;-79
2022/03/06 11:03:25;;;;;;;6.63;3.55;;;;;;;;;;6094707;23;20511;-80
2022/03/06 11:05:52;;;;;;;6.13;3.58;;;;;;;;;;6094823;23;20014;-84
2022/03/06 11:08:18;;;;;;;6.55;4.25;;;;;;;;;;6094817;23;20092;-81
2022/03/06 11:10:44;;;;;;;6.10;3.75;;;;;;;;;;6094764;23;20081;-80
2022/03/06 11:13:14;;;;;;;6.60;3.70;;;;;;;;;;6071337;23;20009;-82
2022/03/06 11:15:41;;;;;;;6.80;3.63;;;;;;;;;;6072153;23;20014;-80
2022/03/06 11:18:07;;;;;;;9.07;3.80;;;;;;;;;;6096372;23;20021;-80
2022/03/06 11:20:34;;;;;;;6.55;3.80;;;;;;;;;;6097266;23;20018;-81
2022/03/06 11:23:12;;;;;;;6.28;4.10;;;;;;;;;;6097169;23;20028;-81
2022/03/06 11:25:45;;;;;;;6.65;3.80;;;;;;;;;;6097053;23;20101;-79
2022/03/06 11:28:18;;;;;;;6.65;4.20;;;;;;;;;;6073149;23;20014;-79
2022/03/06 11:30:44;;;;;;;7.47;4.10;;;;;;;;;;6096985;23;20079;-80
2022/03/06 11:33:11;;;;;;;6.20;3.70;;;;;;;;;;6095060;23;20021;-79
2022/03/06 11:35:41;;;;;;;7.25;4.00;;;;;;;;;;6094647;23;20025;-79
2022/03/06 11:38:09;;;;;;;7.07;3.95;;;;;;;;;;6095831;23;20033;-79
2022/03/06 11:40:40;;;;;;;7.50;3.90;;;;;;;;;;6094871;23;20037;-80
2022/03/06 11:43:07;;;;;;;6.40;3.70;;;;;;;;;;6095002;23;20021;-80
2022/03/06 11:45:47;;;;;;;6.70;3.78;;;;;;;;;;6070345;23;20057;-79
2022/03/06 11:48:23;;;;;;;6.10;3.47;;;;;;;;;;6094599;23;20456;-79
2022/03/06 11:51:24;;;;;;;9.35;3.95;;;;;;;;;;6094570;23;20075;-83
2022/03/06 11:53:51;;;;;;;7.03;4.00;;;;;;;;;;6011849;23;20015;-79
2022/03/06 11:59:09;;;;;;;7.07;4.10;;;;;;;;;;6094741;23;20024;-80
2022/03/06 12:01:39;;;;;;;7.43;3.97;;;;;;;;;;6094858;23;20049;-79
2022/03/06 12:04:15;;;;;;;7.70;3.90;;;;;;;;;;6070660;23;20041;-79
2022/03/06 12:06:43;;;;;;;6.70;4.18;;;;;;;;;;6094525;23;20092;-80
2022/03/06 12:09:14;;;;;;;6.88;4.10;;;;;;;;;;6070710;23;20010;-80
2022/03/06 12:11:40;;;;;;;9.02;4.20;;;;;;;;;;6070103;23;20010;-79
2022/03/06 12:14:14;;;;;;;8.98;4.25;;;;;;;;;;6094688;23;20348;-81
2022/03/06 12:16:58;;;;;;;7.45;4.00;;;;;;;;;;6094529;23;20017;-80
2022/03/06 12:19:24;;;;;;;8.88;4.70;;;;;;;;;;6094571;23;20081;-80
2022/03/06 12:21:50;;;;;;;7.32;3.92;;;;;;;;;;6094545;23;20452;-78
2022/03/06 12:24:27;;;;;;;5.95;4.05;;;;;;;;;;6094197;23;20024;-79
2022/03/06 12:26:54;;;;;;;7.20;3.72;;;;;;;;;;6094062;23;20153;-79
2022/03/06 12:29:39;;;;;;;6.13;4.05;;;;;;;;;;6094269;23;20018;-80
2022/03/06 12:32:23;;;;;;;5.65;3.83;;;;;;;;;;6070792;23;20455;-81
2022/03/06 12:34:56;;;;;;;7.57;4.50;;;;;;;;;;6094406;23;20018;-81
2022/03/06 12:37:28;;;;;;;7.63;4.32;;;;;;;;;;6070630;23;20077;-81
2022/03/06 12:39:55;;;;;;;6.95;4.45;;;;;;;;;;6094547;23;20355;-79
2022/03/06 12:42:31;;;;;;;7.55;4.28;;;;;;;;;;6094351;23;20018;-83
2022/03/06 12:44:59;;;;;;;6.47;4.30;;;;;;;;;;6070543;23;20410;-80
2022/03/06 12:47:29;;;;;;;9.48;4.50;;;;;;;;;;6094589;23;20046;-82
2022/03/06 12:49:56;;;;;;;7.22;4.25;;;;;;;;;;6118894;23;20014;-79
2022/03/06 12:52:23;;;;;;;8.30;5.20;;;;;;;;;;6094419;23;20084;-81
2022/03/06 12:54:50;;;;;;;7.38;4.32;;;;;;;;;;6093530;23;20361;-80
2022/03/06 12:57:16;;;;;;;8.65;4.50;;;;;;;;;;6094154;23;20024;-79
2022/03/06 12:59:46;;;;;;;8.10;4.78;;;;;;;;;;6091700;23;20014;-79
2022/03/06 13:02:13;;;;;;;8.98;4.65;;;;;;;;;;6092985;23;20018;-79
2022/03/06 13:04:39;;;;;;;7.72;4.70;;;;;;;;;;6067896;23;20032;-81
2022/03/06 13:07:06;;;;;;;8.48;4.40;;;;;;;;;;6093208;23;20045;-79
2022/03/06 13:09:36;;;;;;;9.43;4.82;;;;;;;;;;6094261;23;20382;-81
2022/03/06 13:12:03;;;;;;;8.55;4.50;;;;;;;;;;6096029;23;20017;-81
2022/03/06 13:14:34;;;;;;;5.88;4.18;;;;;;;;;;6073263;23;20037;-79
2022/03/06 13:17:02;;;;;;;7.72;4.57;;;;;;;;;;6095800;23;20022;-81
2022/03/06 13:19:36;;;;;;;9.23;5.07;;;;;;;;;;6094510;23;20042;-80
2022/03/06 13:22:04;;;;;;;7.70;5.20;;;;;;;;;;6094438;23;20018;-80
2022/03/06 13:24:37;;;;;;;8.15;4.53;;;;;;;;;;6095927;23;20357;-81
2022/03/06 13:27:03;;;;;;;7.07;4.40;;;;;;;;;;6096086;23;20498;-80
2022/03/06 13:29:29;;;;;;;7.85;4.25;;;;;;;;;;6094148;23;20280;-80
2022/03/06 13:31:55;;;;;;;8.73;4.82;;;;;;;;;;6095582;23;20073;-80
2022/03/06 13:34:21;;;;;;;7.20;4.40;;;;;;;;;;6095674;23;20018;-79
2022/03/06 13:36:47;;;;;;;8.65;4.38;;;;;;;;;;6071740;23;20021;-79
2022/03/06 13:39:15;;;;;;;7.47;4.50;;;;;;;;;;6095564;23;20018;-80
2022/03/06 13:42:00;;;;;;;7.78;4.53;;;;;;;;;;6071627;23;20010;-80
2022/03/06 13:44:27;;;;;;;7.30;4.53;;;;;;;;;;6071469;23;20223;-79
2022/03/06 13:46:54;;;;;;;7.78;4.80;;;;;;;;;;6074066;23;20018;-78
2022/03/06 13:49:21;;;;;;;11.05;5.70;;;;;;;;;;6074610;23;20013;-81
2022/03/06 13:52:08;;;;;;;9.27;4.90;;;;;;;;;;6098337;23;20114;-80
2022/03/06 13:54:35;;;;;;;7.65;4.63;;;;;;;;;;6073117;23;20014;-80
2022/03/06 13:57:01;;;;;;;7.75;4.32;;;;;;;;;;6095114;23;20028;-80
2022/03/06 13:59:30;;;;;;;10.50;4.88;;;;;;;;;;6094509;23;20018;-80
2022/03/06 14:02:09;;;;;;;7.28;4.28;;;;;;;;;;6094980;23;20476;-79
2022/03/06 14:04:35;;;;;;;9.65;4.88;;;;;;;;;;6068130;23;20018;-79
2022/03/06 14:07:03;;;;;;;6.85;4.22;;;;;;;;;;6093561;23;20021;-78
2022/03/06 14:09:30;;;;;;;6.22;4.20;;;;;;;;;;6095726;23;20041;-78
2022/03/06 14:12:10;;;;;;;7.13;4.13;;;;;;;;;;6095607;23;20331;-80
2022/03/06 14:14:37;;;;;;;6.30;3.90;;;;;;;;;;6095509;23;20069;-80
2022/03/06 14:17:04;;;;;;;7.97;4.18;;;;;;;;;;6094943;23;20017;-79
2022/03/06 14:19:30;;;;;;;9.32;4.30;;;;;;;;;;6095067;23;20126;-79
2022/03/06 14:21:56;;;;;;;7.30;4.05;;;;;;;;;;6071319;23;20090;-79
2022/03/06 14:24:22;;;;;;;9.60;4.20;;;;;;;;;;6071525;23;20029;-79
2022/03/06 14:26:50;;;;;;;8.65;3.83;;;;;;;;;;6071592;23;20507;-80
2022/03/06 14:29:24;;;;;;;8.48;4.15;;;;;;;;;;6095035;23;20025;-80
2022/03/06 14:31:51;;;;;;;7.10;3.53;;;;;;;;;;6095342;23;20150;-78
2022/03/06 14:34:17;;;;;;;8.68;4.20;;;;;;;;;;6094898;23;20025;-79
2022/03/06 14:36:44;;;;;;;7.82;3.80;;;;;;;;;;6095236;23;20041;-79
2022/03/06 14:39:10;;;;;;;9.82;4.38;;;;;;;;;;6095330;23;20329;-80